sensor_id;sensor_type;location;lat;lon;timestamp;P1;durP1;ratioP1;P2;durP2;ratioP2
45103;SDS011;30865;51.288;4.572;2023-04-25T00:00:21;1.40;;;1.10;;
45103;SDS011;30865;51.288;4.572;2023-04-25T00:02:46;6.68;;;1.38;;
45103;SDS011;30865;51.288;4.572;2023-04-25T00:05:12;1.80;;;1.38;;
45103;SDS011;30865;51.288;4.572;2023-04-25T00:07:40;2.10;;;1.30;;
45103;SDS011;30865;51.288;4.572;2023-04-25T00:10:07;2.17;;;1.70;;
45103;SDS011;30865;51.288;4.572;2023-04-25T00:12:33;3.10;;;1.70;;
45103;SDS011;30865;51.288;4.572;2023-04-25T00:15:00;1.80;;;1.40;;
45103;SDS011;30865;51.288;4.572;2023-04-25T00:17:26;4.07;;;1.60;;
45103;SDS011;30865;51.288;4.572;2023-04-25T00:19:51;3.38;;;1.65;;
45103;SDS011;30865;51.288;4.572;2023-04-25T00:22:17;3.08;;;1.42;;
45103;SDS011;30865;51.288;4.572;2023-04-25T00:24:43;5.78;;;1.98;;
45103;SDS011;30865;51.288;4.572;2023-04-25T00:27:08;1.88;;;1.50;;
45103;SDS011;30865;51.288;4.572;2023-04-25T00:29:34;1.63;;;1.27;;
45103;SDS011;30865;51.288;4.572;2023-04-25T00:32:00;3.03;;;1.70;;
45103;SDS011;30865;51.288;4.572;2023-04-25T00:34:25;2.33;;;1.60;;
45103;SDS011;30865;51.288;4.572;2023-04-25T00:36:51;1.42;;;1.30;;
45103;SDS011;30865;51.288;4.572;2023-04-25T00:39:16;2.95;;;1.50;;
45103;SDS011;30865;51.288;4.572;2023-04-25T00:41:42;2.38;;;1.73;;
45103;SDS011;30865;51.288;4.572;2023-04-25T00:44:09;4.25;;;2.05;;
45103;SDS011;30865;51.288;4.572;2023-04-25T00:46:36;3.38;;;2.10;;
45103;SDS011;30865;51.288;4.572;2023-04-25T00:49:01;2.05;;;1.88;;
45103;SDS011;30865;51.288;4.572;2023-04-25T00:51:27;2.85;;;2.03;;
45103;SDS011;30865;51.288;4.572;2023-04-25T00:53:53;4.93;;;2.33;;
45103;SDS011;30865;51.288;4.572;2023-04-25T00:56:19;4.32;;;2.05;;
45103;SDS011;30865;51.288;4.572;2023-04-25T00:58:46;5.40;;;2.42;;
45103;SDS011;30865;51.288;4.572;2023-04-25T01:01:12;2.13;;;1.60;;
45103;SDS011;30865;51.288;4.572;2023-04-25T01:03:39;4.40;;;1.92;;
45103;SDS011;30865;51.288;4.572;2023-04-25T01:06:12;2.65;;;1.60;;
45103;SDS011;30865;51.288;4.572;2023-04-25T01:08:38;2.85;;;1.60;;
45103;SDS011;30865;51.288;4.572;2023-04-25T01:11:04;4.65;;;1.88;;
45103;SDS011;30865;51.288;4.572;2023-04-25T01:13:30;2.17;;;1.70;;
45103;SDS011;30865;51.288;4.572;2023-04-25T01:15:57;3.80;;;2.05;;
45103;SDS011;30865;51.288;4.572;2023-04-25T01:18:23;2.55;;;2.00;;
45103;SDS011;30865;51.288;4.572;2023-04-25T01:20:50;3.88;;;1.90;;
45103;SDS011;30865;51.288;4.572;2023-04-25T01:23:18;2.45;;;1.70;;
45103;SDS011;30865;51.288;4.572;2023-04-25T01:25:44;2.55;;;1.88;;
45103;SDS011;30865;51.288;4.572;2023-04-25T01:28:11;3.78;;;2.10;;
45103;SDS011;30865;51.288;4.572;2023-04-25T01:30:37;2.97;;;2.10;;
45103;SDS011;30865;51.288;4.572;2023-04-25T01:33:03;2.90;;;2.25;;
45103;SDS011;30865;51.288;4.572;2023-04-25T01:35:30;2.72;;;1.88;;
45103;SDS011;30865;51.288;4.572;2023-04-25T01:37:57;4.28;;;3.10;;
45103;SDS011;30865;51.288;4.572;2023-04-25T01:40:23;2.30;;;1.90;;
45103;SDS011;30865;51.288;4.572;2023-04-25T01:42:49;2.40;;;2.20;;
45103;SDS011;30865;51.288;4.572;2023-04-25T01:45:15;2.83;;;1.80;;
45103;SDS011;30865;51.288;4.572;2023-04-25T01:47:42;2.10;;;1.90;;
45103;SDS011;30865;51.288;4.572;2023-04-25T01:50:08;2.33;;;1.95;;
45103;SDS011;30865;51.288;4.572;2023-04-25T01:52:35;2.92;;;2.03;;
45103;SDS011;30865;51.288;4.572;2023-04-25T01:55:01;2.28;;;1.88;;
45103;SDS011;30865;51.288;4.572;2023-04-25T01:57:27;2.78;;;1.67;;
45103;SDS011;30865;51.288;4.572;2023-04-25T01:59:58;2.47;;;1.65;;
45103;SDS011;30865;51.288;4.572;2023-04-25T02:02:25;2.13;;;1.75;;
45103;SDS011;30865;51.288;4.572;2023-04-25T02:04:51;2.58;;;2.13;;
45103;SDS011;30865;51.288;4.572;2023-04-25T02:07:17;5.88;;;2.15;;
45103;SDS011;30865;51.288;4.572;2023-04-25T02:09:42;3.10;;;2.13;;
45103;SDS011;30865;51.288;4.572;2023-04-25T02:12:09;2.53;;;1.90;;
45103;SDS011;30865;51.288;4.572;2023-04-25T02:14:35;3.83;;;2.08;;
45103;SDS011;30865;51.288;4.572;2023-04-25T02:17:01;3.28;;;1.98;;
45103;SDS011;30865;51.288;4.572;2023-04-25T02:19:26;4.82;;;1.88;;
45103;SDS011;30865;51.288;4.572;2023-04-25T02:21:52;1.75;;;1.60;;
45103;SDS011;30865;51.288;4.572;2023-04-25T02:24:17;2.80;;;1.73;;
45103;SDS011;30865;51.288;4.572;2023-04-25T02:26:43;2.47;;;1.75;;
45103;SDS011;30865;51.288;4.572;2023-04-25T02:29:09;2.42;;;1.70;;
45103;SDS011;30865;51.288;4.572;2023-04-25T02:31:35;2.42;;;1.70;;
45103;SDS011;30865;51.288;4.572;2023-04-25T02:34:00;5.00;;;2.33;;
45103;SDS011;30865;51.288;4.572;2023-04-25T02:36:26;2.03;;;1.70;;
45103;SDS011;30865;51.288;4.572;2023-04-25T02:38:52;1.95;;;1.45;;
45103;SDS011;30865;51.288;4.572;2023-04-25T02:41:18;3.55;;;1.58;;
45103;SDS011;30865;51.288;4.572;2023-04-25T02:43:43;1.70;;;1.55;;
45103;SDS011;30865;51.288;4.572;2023-04-25T02:46:09;3.05;;;1.48;;
45103;SDS011;30865;51.288;4.572;2023-04-25T02:48:34;2.67;;;1.50;;
45103;SDS011;30865;51.288;4.572;2023-04-25T02:51:00;1.92;;;1.23;;
45103;SDS011;30865;51.288;4.572;2023-04-25T02:53:25;4.53;;;1.73;;
45103;SDS011;30865;51.288;4.572;2023-04-25T02:55:51;2.13;;;1.40;;
45103;SDS011;30865;51.288;4.572;2023-04-25T02:58:17;3.95;;;1.67;;
45103;SDS011;30865;51.288;4.572;2023-04-25T03:00:43;1.83;;;1.58;;
45103;SDS011;30865;51.288;4.572;2023-04-25T03:03:08;2.15;;;1.52;;
45103;SDS011;30865;51.288;4.572;2023-04-25T03:05:34;2.35;;;1.40;;
45103;SDS011;30865;51.288;4.572;2023-04-25T03:07:59;4.45;;;1.20;;
45103;SDS011;30865;51.288;4.572;2023-04-25T03:10:26;1.58;;;1.27;;
45103;SDS011;30865;51.288;4.572;2023-04-25T03:12:51;6.03;;;2.17;;
45103;SDS011;30865;51.288;4.572;2023-04-25T03:15:17;1.60;;;1.15;;
45103;SDS011;30865;51.288;4.572;2023-04-25T03:17:43;1.10;;;1.00;;
45103;SDS011;30865;51.288;4.572;2023-04-25T03:20:09;2.85;;;1.50;;
45103;SDS011;30865;51.288;4.572;2023-04-25T03:22:35;2.25;;;1.40;;
45103;SDS011;30865;51.288;4.572;2023-04-25T03:25:01;1.40;;;1.30;;
45103;SDS011;30865;51.288;4.572;2023-04-25T03:27:27;1.20;;;1.10;;
45103;SDS011;30865;51.288;4.572;2023-04-25T03:29:53;1.17;;;0.93;;
45103;SDS011;30865;51.288;4.572;2023-04-25T03:32:18;2.42;;;1.50;;
45103;SDS011;30865;51.288;4.572;2023-04-25T03:34:44;1.60;;;1.10;;
45103;SDS011;30865;51.288;4.572;2023-04-25T03:37:10;3.53;;;1.70;;
45103;SDS011;30865;51.288;4.572;2023-04-25T03:39:35;7.18;;;1.85;;
45103;SDS011;30865;51.288;4.572;2023-04-25T03:42:02;7.50;;;1.50;;
45103;SDS011;30865;51.288;4.572;2023-04-25T03:44:28;2.95;;;1.38;;
45103;SDS011;30865;51.288;4.572;2023-04-25T03:46:53;2.55;;;1.50;;
45103;SDS011;30865;51.288;4.572;2023-04-25T03:49:19;3.72;;;2.42;;
45103;SDS011;30865;51.288;4.572;2023-04-25T03:51:44;2.47;;;1.83;;
45103;SDS011;30865;51.288;4.572;2023-04-25T03:54:10;2.78;;;1.50;;
45103;SDS011;30865;51.288;4.572;2023-04-25T03:56:35;1.40;;;1.30;;
45103;SDS011;30865;51.288;4.572;2023-04-25T03:59:01;2.20;;;1.48;;
45103;SDS011;30865;51.288;4.572;2023-04-25T04:01:26;1.55;;;1.20;;
45103;SDS011;30865;51.288;4.572;2023-04-25T04:03:52;2.90;;;1.67;;
45103;SDS011;30865;51.288;4.572;2023-04-25T04:06:18;2.97;;;1.10;;
45103;SDS011;30865;51.288;4.572;2023-04-25T04:08:45;3.80;;;1.35;;
45103;SDS011;30865;51.288;4.572;2023-04-25T04:11:14;4.40;;;1.40;;
45103;SDS011;30865;51.288;4.572;2023-04-25T04:13:39;2.92;;;1.58;;
45103;SDS011;30865;51.288;4.572;2023-04-25T04:16:05;6.57;;;2.00;;
45103;SDS011;30865;51.288;4.572;2023-04-25T04:18:30;2.15;;;1.70;;
45103;SDS011;30865;51.288;4.572;2023-04-25T04:20:58;3.15;;;1.63;;
45103;SDS011;30865;51.288;4.572;2023-04-25T04:23:23;6.55;;;1.75;;
45103;SDS011;30865;51.288;4.572;2023-04-25T04:25:49;4.45;;;1.65;;
45103;SDS011;30865;51.288;4.572;2023-04-25T04:28:17;18.88;;;3.75;;
45103;SDS011;30865;51.288;4.572;2023-04-25T04:30:42;5.07;;;1.80;;
45103;SDS011;30865;51.288;4.572;2023-04-25T04:33:11;8.57;;;1.95;;
45103;SDS011;30865;51.288;4.572;2023-04-25T04:35:37;1.67;;;1.25;;
45103;SDS011;30865;51.288;4.572;2023-04-25T04:38:03;3.22;;;1.80;;
45103;SDS011;30865;51.288;4.572;2023-04-25T04:40:29;4.80;;;1.58;;
45103;SDS011;30865;51.288;4.572;2023-04-25T04:42:57;3.30;;;1.85;;
45103;SDS011;30865;51.288;4.572;2023-04-25T04:45:25;6.07;;;2.00;;
45103;SDS011;30865;51.288;4.572;2023-04-25T04:47:52;4.30;;;1.60;;
45103;SDS011;30865;51.288;4.572;2023-04-25T04:50:20;6.43;;;1.77;;
45103;SDS011;30865;51.288;4.572;2023-04-25T04:52:45;7.03;;;2.33;;
45103;SDS011;30865;51.288;4.572;2023-04-25T04:55:11;3.20;;;2.20;;
45103;SDS011;30865;51.288;4.572;2023-04-25T04:57:36;4.28;;;1.92;;
45103;SDS011;30865;51.288;4.572;2023-04-25T05:00:05;3.70;;;1.80;;
45103;SDS011;30865;51.288;4.572;2023-04-25T05:02:35;6.40;;;2.28;;
45103;SDS011;30865;51.288;4.572;2023-04-25T05:05:01;6.93;;;2.42;;
45103;SDS011;30865;51.288;4.572;2023-04-25T05:07:27;3.08;;;2.08;;
45103;SDS011;30865;51.288;4.572;2023-04-25T05:09:52;2.13;;;1.80;;
45103;SDS011;30865;51.288;4.572;2023-04-25T05:12:18;9.05;;;3.60;;
45103;SDS011;30865;51.288;4.572;2023-04-25T05:14:43;4.25;;;1.88;;
45103;SDS011;30865;51.288;4.572;2023-04-25T05:17:09;6.28;;;1.88;;
45103;SDS011;30865;51.288;4.572;2023-04-25T05:19:34;5.25;;;2.88;;
45103;SDS011;30865;51.288;4.572;2023-04-25T05:22:00;6.40;;;2.00;;
45103;SDS011;30865;51.288;4.572;2023-04-25T05:24:26;5.78;;;1.88;;
45103;SDS011;30865;51.288;4.572;2023-04-25T05:26:51;5.43;;;2.03;;
45103;SDS011;30865;51.288;4.572;2023-04-25T05:29:18;4.47;;;2.22;;
45103;SDS011;30865;51.288;4.572;2023-04-25T05:31:45;7.93;;;2.88;;
45103;SDS011;30865;51.288;4.572;2023-04-25T05:34:13;8.02;;;2.53;;
45103;SDS011;30865;51.288;4.572;2023-04-25T05:36:39;5.90;;;2.22;;
45103;SDS011;30865;51.288;4.572;2023-04-25T05:39:05;10.73;;;3.05;;
45103;SDS011;30865;51.288;4.572;2023-04-25T05:41:31;5.30;;;2.75;;
45103;SDS011;30865;51.288;4.572;2023-04-25T05:43:56;7.93;;;3.38;;
45103;SDS011;30865;51.288;4.572;2023-04-25T05:46:22;4.55;;;2.08;;
45103;SDS011;30865;51.288;4.572;2023-04-25T05:48:48;4.03;;;2.08;;
45103;SDS011;30865;51.288;4.572;2023-04-25T05:51:13;2.75;;;1.70;;
45103;SDS011;30865;51.288;4.572;2023-04-25T05:53:38;5.18;;;2.15;;
45103;SDS011;30865;51.288;4.572;2023-04-25T05:56:04;2.22;;;1.77;;
45103;SDS011;30865;51.288;4.572;2023-04-25T05:58:30;4.38;;;2.25;;
45103;SDS011;30865;51.288;4.572;2023-04-25T06:00:55;3.97;;;1.70;;
45103;SDS011;30865;51.288;4.572;2023-04-25T06:03:21;4.45;;;2.35;;
45103;SDS011;30865;51.288;4.572;2023-04-25T06:05:47;2.47;;;1.77;;
45103;SDS011;30865;51.288;4.572;2023-04-25T06:08:13;2.55;;;2.10;;
45103;SDS011;30865;51.288;4.572;2023-04-25T06:10:38;1.70;;;1.55;;
45103;SDS011;30865;51.288;4.572;2023-04-25T06:13:04;3.60;;;2.17;;
45103;SDS011;30865;51.288;4.572;2023-04-25T06:15:31;2.38;;;1.55;;
45103;SDS011;30865;51.288;4.572;2023-04-25T06:17:59;2.55;;;1.80;;
45103;SDS011;30865;51.288;4.572;2023-04-25T06:20:25;2.03;;;1.40;;
45103;SDS011;30865;51.288;4.572;2023-04-25T06:22:51;2.65;;;1.60;;
45103;SDS011;30865;51.288;4.572;2023-04-25T06:25:17;1.95;;;1.40;;
45103;SDS011;30865;51.288;4.572;2023-04-25T06:27:43;2.35;;;1.60;;
45103;SDS011;30865;51.288;4.572;2023-04-25T06:30:09;2.78;;;1.30;;
45103;SDS011;30865;51.288;4.572;2023-04-25T06:32:36;3.72;;;1.70;;
45103;SDS011;30865;51.288;4.572;2023-04-25T06:35:02;2.53;;;2.20;;
45103;SDS011;30865;51.288;4.572;2023-04-25T06:37:28;1.35;;;1.23;;
45103;SDS011;30865;51.288;4.572;2023-04-25T06:39:54;4.60;;;1.40;;
45103;SDS011;30865;51.288;4.572;2023-04-25T06:42:19;2.05;;;1.20;;
45103;SDS011;30865;51.288;4.572;2023-04-25T06:44:45;1.95;;;1.60;;
45103;SDS011;30865;51.288;4.572;2023-04-25T06:47:10;2.50;;;1.48;;
45103;SDS011;30865;51.288;4.572;2023-04-25T06:49:36;5.50;;;1.92;;
45103;SDS011;30865;51.288;4.572;2023-04-25T06:52:02;1.63;;;1.30;;
45103;SDS011;30865;51.288;4.572;2023-04-25T06:54:27;4.32;;;1.73;;
45103;SDS011;30865;51.288;4.572;2023-04-25T06:56:54;1.80;;;1.60;;
45103;SDS011;30865;51.288;4.572;2023-04-25T06:59:20;4.68;;;1.70;;
45103;SDS011;30865;51.288;4.572;2023-04-25T07:01:46;6.25;;;2.25;;
45103;SDS011;30865;51.288;4.572;2023-04-25T07:04:12;2.17;;;1.80;;
45103;SDS011;30865;51.288;4.572;2023-04-25T07:06:37;1.77;;;1.40;;
45103;SDS011;30865;51.288;4.572;2023-04-25T07:09:08;2.33;;;1.48;;
45103;SDS011;30865;51.288;4.572;2023-04-25T07:11:35;4.32;;;1.58;;
45103;SDS011;30865;51.288;4.572;2023-04-25T07:14:01;1.40;;;1.30;;
45103;SDS011;30865;51.288;4.572;2023-04-25T07:16:27;5.13;;;1.55;;
45103;SDS011;30865;51.288;4.572;2023-04-25T07:18:52;3.13;;;2.20;;
45103;SDS011;30865;51.288;4.572;2023-04-25T07:21:18;2.45;;;1.65;;
45103;SDS011;30865;51.288;4.572;2023-04-25T07:23:45;1.90;;;1.58;;
45103;SDS011;30865;51.288;4.572;2023-04-25T07:26:10;2.67;;;1.83;;
45103;SDS011;30865;51.288;4.572;2023-04-25T07:28:36;3.72;;;2.08;;
45103;SDS011;30865;51.288;4.572;2023-04-25T07:31:02;3.88;;;2.33;;
45103;SDS011;30865;51.288;4.572;2023-04-25T07:33:28;3.40;;;1.83;;
45103;SDS011;30865;51.288;4.572;2023-04-25T07:35:54;2.47;;;1.83;;
45103;SDS011;30865;51.288;4.572;2023-04-25T07:38:23;4.72;;;2.10;;
45103;SDS011;30865;51.288;4.572;2023-04-25T07:40:49;2.42;;;1.83;;
45103;SDS011;30865;51.288;4.572;2023-04-25T07:43:16;1.77;;;1.65;;
45103;SDS011;30865;51.288;4.572;2023-04-25T07:45:42;2.63;;;1.73;;
45103;SDS011;30865;51.288;4.572;2023-04-25T07:48:08;3.25;;;2.15;;
45103;SDS011;30865;51.288;4.572;2023-04-25T07:50:34;3.28;;;2.40;;
45103;SDS011;30865;51.288;4.572;2023-04-25T07:52:59;6.20;;;2.83;;
45103;SDS011;30865;51.288;4.572;2023-04-25T07:55:25;3.22;;;2.35;;
45103;SDS011;30865;51.288;4.572;2023-04-25T07:57:51;3.83;;;2.58;;
45103;SDS011;30865;51.288;4.572;2023-04-25T08:00:16;4.70;;;2.70;;
45103;SDS011;30865;51.288;4.572;2023-04-25T08:02:42;5.20;;;2.80;;
45103;SDS011;30865;51.288;4.572;2023-04-25T08:05:08;5.75;;;2.55;;
45103;SDS011;30865;51.288;4.572;2023-04-25T08:07:36;4.80;;;2.75;;
45103;SDS011;30865;51.288;4.572;2023-04-25T08:10:04;3.40;;;2.55;;
45103;SDS011;30865;51.288;4.572;2023-04-25T08:12:30;3.05;;;2.15;;
45103;SDS011;30865;51.288;4.572;2023-04-25T08:14:56;5.78;;;3.35;;
45103;SDS011;30865;51.288;4.572;2023-04-25T08:17:21;3.83;;;2.95;;
45103;SDS011;30865;51.288;4.572;2023-04-25T08:19:47;4.15;;;2.70;;
45103;SDS011;30865;51.288;4.572;2023-04-25T08:22:12;4.07;;;2.75;;
45103;SDS011;30865;51.288;4.572;2023-04-25T08:24:38;3.30;;;3.00;;
45103;SDS011;30865;51.288;4.572;2023-04-25T08:27:03;5.88;;;3.30;;
45103;SDS011;30865;51.288;4.572;2023-04-25T08:29:29;6.95;;;3.90;;
45103;SDS011;30865;51.288;4.572;2023-04-25T08:31:54;7.30;;;3.97;;
45103;SDS011;30865;51.288;4.572;2023-04-25T08:34:20;4.25;;;2.72;;
45103;SDS011;30865;51.288;4.572;2023-04-25T08:36:46;7.38;;;3.25;;
45103;SDS011;30865;51.288;4.572;2023-04-25T08:39:11;4.70;;;3.40;;
45103;SDS011;30865;51.288;4.572;2023-04-25T08:41:38;5.82;;;3.20;;
45103;SDS011;30865;51.288;4.572;2023-04-25T08:44:05;5.93;;;4.10;;
45103;SDS011;30865;51.288;4.572;2023-04-25T08:46:34;6.20;;;3.50;;
45103;SDS011;30865;51.288;4.572;2023-04-25T08:49:02;8.52;;;3.40;;
45103;SDS011;30865;51.288;4.572;2023-04-25T08:51:30;8.45;;;3.53;;
45103;SDS011;30865;51.288;4.572;2023-04-25T08:53:58;6.80;;;3.50;;
45103;SDS011;30865;51.288;4.572;2023-04-25T08:56:47;9.07;;;4.28;;
45103;SDS011;30865;51.288;4.572;2023-04-25T08:59:13;10.52;;;4.15;;
45103;SDS011;30865;51.288;4.572;2023-04-25T09:01:39;8.60;;;4.65;;
45103;SDS011;30865;51.288;4.572;2023-04-25T09:04:05;5.13;;;3.80;;
45103;SDS011;30865;51.288;4.572;2023-04-25T09:06:31;5.28;;;3.75;;
45103;SDS011;30865;51.288;4.572;2023-04-25T09:09:05;8.90;;;4.55;;
45103;SDS011;30865;51.288;4.572;2023-04-25T09:11:31;5.93;;;3.42;;
45103;SDS011;30865;51.288;4.572;2023-04-25T09:14:13;5.93;;;3.95;;
45103;SDS011;30865;51.288;4.572;2023-04-25T09:19:25;5.47;;;2.83;;
45103;SDS011;30865;51.288;4.572;2023-04-25T09:21:59;5.47;;;3.88;;
45103;SDS011;30865;51.288;4.572;2023-04-25T09:24:32;8.32;;;4.60;;
45103;SDS011;30865;51.288;4.572;2023-04-25T09:26:59;4.45;;;3.13;;
45103;SDS011;30865;51.288;4.572;2023-04-25T09:29:33;6.47;;;3.80;;
45103;SDS011;30865;51.288;4.572;2023-04-25T09:32:33;5.80;;;4.03;;
45103;SDS011;30865;51.288;4.572;2023-04-25T09:34:53;5.25;;;3.78;;
45103;SDS011;30865;51.288;4.572;2023-04-25T09:37:27;5.78;;;3.55;;
45103;SDS011;30865;51.288;4.572;2023-04-25T09:39:55;7.93;;;3.90;;
45103;SDS011;30865;51.288;4.572;2023-04-25T09:42:24;6.30;;;3.95;;
45103;SDS011;30865;51.288;4.572;2023-04-25T09:44:53;5.95;;;3.92;;
45103;SDS011;30865;51.288;4.572;2023-04-25T09:47:22;4.97;;;3.50;;
45103;SDS011;30865;51.288;4.572;2023-04-25T09:49:49;6.93;;;4.20;;
45103;SDS011;30865;51.288;4.572;2023-04-25T09:52:16;5.43;;;4.00;;
45103;SDS011;30865;51.288;4.572;2023-04-25T09:54:43;6.65;;;3.97;;
45103;SDS011;30865;51.288;4.572;2023-04-25T09:59:42;7.28;;;3.88;;
45103;SDS011;30865;51.288;4.572;2023-04-25T10:02:10;6.05;;;4.07;;
45103;SDS011;30865;51.288;4.572;2023-04-25T10:04:37;8.25;;;4.50;;
45103;SDS011;30865;51.288;4.572;2023-04-25T10:07:05;8.18;;;5.38;;
45103;SDS011;30865;51.288;4.572;2023-04-25T10:09:32;6.65;;;4.75;;
45103;SDS011;30865;51.288;4.572;2023-04-25T10:12:01;8.18;;;3.75;;
45103;SDS011;30865;51.288;4.572;2023-04-25T10:14:29;4.22;;;2.88;;
45103;SDS011;30865;51.288;4.572;2023-04-25T10:16:56;4.38;;;2.92;;
45103;SDS011;30865;51.288;4.572;2023-04-25T10:19:23;4.68;;;3.30;;
45103;SDS011;30865;51.288;4.572;2023-04-25T10:21:58;6.97;;;3.53;;
45103;SDS011;30865;51.288;4.572;2023-04-25T10:24:34;9.80;;;5.72;;
45103;SDS011;30865;51.288;4.572;2023-04-25T10:27:01;4.40;;;2.90;;
45103;SDS011;30865;51.288;4.572;2023-04-25T10:29:27;5.00;;;2.90;;
45103;SDS011;30865;51.288;4.572;2023-04-25T10:31:52;6.93;;;2.92;;
45103;SDS011;30865;51.288;4.572;2023-04-25T10:34:18;6.95;;;2.92;;
45103;SDS011;30865;51.288;4.572;2023-04-25T10:36:53;7.33;;;3.27;;
45103;SDS011;30865;51.288;4.572;2023-04-25T10:39:23;4.45;;;3.08;;
45103;SDS011;30865;51.288;4.572;2023-04-25T10:41:56;6.22;;;2.85;;
45103;SDS011;30865;51.288;4.572;2023-04-25T10:44:26;4.43;;;3.00;;
45103;SDS011;30865;51.288;4.572;2023-04-25T10:46:56;4.72;;;2.92;;
45103;SDS011;30865;51.288;4.572;2023-04-25T10:49:29;3.97;;;3.00;;
45103;SDS011;30865;51.288;4.572;2023-04-25T10:52:18;2.78;;;2.13;;
45103;SDS011;30865;51.288;4.572;2023-04-25T10:54:53;5.13;;;3.47;;
45103;SDS011;30865;51.288;4.572;2023-04-25T10:57:26;12.02;;;7.28;;
45103;SDS011;30865;51.288;4.572;2023-04-25T10:59:59;7.07;;;3.92;;
45103;SDS011;30865;51.288;4.572;2023-04-25T11:02:31;5.43;;;3.80;;
45103;SDS011;30865;51.288;4.572;2023-04-25T11:05:01;8.27;;;3.97;;
45103;SDS011;30865;51.288;4.572;2023-04-25T11:09:56;11.20;;;4.95;;
45103;SDS011;30865;51.288;4.572;2023-04-25T11:12:24;9.30;;;4.65;;
45103;SDS011;30865;51.288;4.572;2023-04-25T11:14:49;5.25;;;3.53;;
45103;SDS011;30865;51.288;4.572;2023-04-25T11:17:15;7.70;;;4.43;;
45103;SDS011;30865;51.288;4.572;2023-04-25T11:19:40;6.07;;;3.88;;
45103;SDS011;30865;51.288;4.572;2023-04-25T11:22:06;7.53;;;4.20;;
45103;SDS011;30865;51.288;4.572;2023-04-25T11:24:33;8.57;;;4.05;;
45103;SDS011;30865;51.288;4.572;2023-04-25T11:27:00;5.65;;;2.80;;
45103;SDS011;30865;51.288;4.572;2023-04-25T11:29:33;5.03;;;2.88;;
45103;SDS011;30865;51.288;4.572;2023-04-25T11:32:00;2.90;;;2.35;;
45103;SDS011;30865;51.288;4.572;2023-04-25T11:34:26;3.63;;;2.35;;
45103;SDS011;30865;51.288;4.572;2023-04-25T11:36:55;3.13;;;2.22;;
45103;SDS011;30865;51.288;4.572;2023-04-25T11:39:21;5.35;;;3.05;;
45103;SDS011;30865;51.288;4.572;2023-04-25T11:41:46;5.28;;;1.90;;
45103;SDS011;30865;51.288;4.572;2023-04-25T11:44:15;5.15;;;2.20;;
45103;SDS011;30865;51.288;4.572;2023-04-25T11:46:41;3.55;;;1.90;;
45103;SDS011;30865;51.288;4.572;2023-04-25T11:49:07;4.93;;;2.42;;
45103;SDS011;30865;51.288;4.572;2023-04-25T11:51:54;4.38;;;2.25;;
45103;SDS011;30865;51.288;4.572;2023-04-25T11:54:19;5.28;;;2.38;;
45103;SDS011;30865;51.288;4.572;2023-04-25T11:56:45;4.65;;;3.10;;
45103;SDS011;30865;51.288;4.572;2023-04-25T11:59:11;4.53;;;2.88;;
45103;SDS011;30865;51.288;4.572;2023-04-25T12:01:38;4.70;;;2.88;;
45103;SDS011;30865;51.288;4.572;2023-04-25T12:06:37;4.05;;;2.50;;
45103;SDS011;30865;51.288;4.572;2023-04-25T12:09:14;3.80;;;2.78;;
45103;SDS011;30865;51.288;4.572;2023-04-25T12:14:09;3.30;;;2.40;;
45103;SDS011;30865;51.288;4.572;2023-04-25T12:16:46;2.78;;;2.47;;
45103;SDS011;30865;51.288;4.572;2023-04-25T12:19:14;6.72;;;3.47;;
45103;SDS011;30865;51.288;4.572;2023-04-25T12:21:40;4.10;;;3.08;;
45103;SDS011;30865;51.288;4.572;2023-04-25T12:24:10;5.75;;;3.35;;
45103;SDS011;30865;51.288;4.572;2023-04-25T12:26:46;4.45;;;3.05;;
45103;SDS011;30865;51.288;4.572;2023-04-25T12:29:23;4.55;;;3.17;;
45103;SDS011;30865;51.288;4.572;2023-04-25T12:31:50;5.63;;;3.58;;
45103;SDS011;30865;51.288;4.572;2023-04-25T12:34:16;5.57;;;3.90;;
45103;SDS011;30865;51.288;4.572;2023-04-25T12:36:43;5.95;;;4.55;;
45103;SDS011;30865;51.288;4.572;2023-04-25T12:39:13;6.40;;;4.55;;
45103;SDS011;30865;51.288;4.572;2023-04-25T12:41:52;9.68;;;3.95;;
45103;SDS011;30865;51.288;4.572;2023-04-25T12:44:19;4.97;;;3.33;;
45103;SDS011;30865;51.288;4.572;2023-04-25T12:46:45;8.68;;;4.68;;
45103;SDS011;30865;51.288;4.572;2023-04-25T12:49:11;8.82;;;4.93;;
45103;SDS011;30865;51.288;4.572;2023-04-25T12:51:37;6.50;;;4.97;;
45103;SDS011;30865;51.288;4.572;2023-04-25T12:54:03;9.48;;;3.88;;
45103;SDS011;30865;51.288;4.572;2023-04-25T12:56:31;4.80;;;3.60;;
45103;SDS011;30865;51.288;4.572;2023-04-25T12:58:57;6.88;;;4.35;;
45103;SDS011;30865;51.288;4.572;2023-04-25T13:01:22;5.60;;;4.07;;
45103;SDS011;30865;51.288;4.572;2023-04-25T13:03:49;5.68;;;3.70;;
45103;SDS011;30865;51.288;4.572;2023-04-25T13:06:15;9.50;;;4.35;;
45103;SDS011;30865;51.288;4.572;2023-04-25T13:08:42;8.60;;;4.90;;
45103;SDS011;30865;51.288;4.572;2023-04-25T13:11:07;7.00;;;4.82;;
45103;SDS011;30865;51.288;4.572;2023-04-25T13:13:34;6.38;;;3.97;;
45103;SDS011;30865;51.288;4.572;2023-04-25T13:16:02;5.10;;;3.50;;
45103;SDS011;30865;51.288;4.572;2023-04-25T13:18:29;7.55;;;4.47;;
45103;SDS011;30865;51.288;4.572;2023-04-25T13:20:55;8.10;;;4.32;;
45103;SDS011;30865;51.288;4.572;2023-04-25T13:23:21;8.40;;;4.93;;
45103;SDS011;30865;51.288;4.572;2023-04-25T13:25:47;8.55;;;4.30;;
45103;SDS011;30865;51.288;4.572;2023-04-25T13:28:13;10.63;;;5.45;;
45103;SDS011;30865;51.288;4.572;2023-04-25T13:30:39;7.63;;;5.00;;
45103;SDS011;30865;51.288;4.572;2023-04-25T13:33:05;7.32;;;3.65;;
45103;SDS011;30865;51.288;4.572;2023-04-25T13:35:31;7.65;;;3.70;;
45103;SDS011;30865;51.288;4.572;2023-04-25T13:37:57;6.13;;;3.67;;
45103;SDS011;30865;51.288;4.572;2023-04-25T13:40:23;7.13;;;3.78;;
45103;SDS011;30865;51.288;4.572;2023-04-25T13:42:48;6.05;;;3.40;;
45103;SDS011;30865;51.288;4.572;2023-04-25T13:45:17;6.68;;;3.97;;
45103;SDS011;30865;51.288;4.572;2023-04-25T13:47:42;4.53;;;3.58;;
45103;SDS011;30865;51.288;4.572;2023-04-25T13:50:08;11.43;;;4.65;;
45103;SDS011;30865;51.288;4.572;2023-04-25T13:52:34;6.38;;;4.25;;
45103;SDS011;30865;51.288;4.572;2023-04-25T13:55:00;7.93;;;4.78;;
45103;SDS011;30865;51.288;4.572;2023-04-25T13:57:28;9.20;;;5.15;;
45103;SDS011;30865;51.288;4.572;2023-04-25T13:59:53;7.45;;;5.25;;
45103;SDS011;30865;51.288;4.572;2023-04-25T14:02:19;7.22;;;4.80;;
45103;SDS011;30865;51.288;4.572;2023-04-25T14:04:45;8.20;;;4.85;;
45103;SDS011;30865;51.288;4.572;2023-04-25T14:07:10;10.65;;;5.63;;
45103;SDS011;30865;51.288;4.572;2023-04-25T14:09:36;9.88;;;5.70;;
45103;SDS011;30865;51.288;4.572;2023-04-25T14:12:02;7.47;;;5.20;;
45103;SDS011;30865;51.288;4.572;2023-04-25T14:14:27;8.10;;;5.57;;
45103;SDS011;30865;51.288;4.572;2023-04-25T14:16:53;9.70;;;5.93;;
45103;SDS011;30865;51.288;4.572;2023-04-25T14:19:19;6.88;;;5.13;;
45103;SDS011;30865;51.288;4.572;2023-04-25T14:21:45;9.80;;;5.60;;
45103;SDS011;30865;51.288;4.572;2023-04-25T14:24:11;7.03;;;4.80;;
45103;SDS011;30865;51.288;4.572;2023-04-25T14:26:38;8.65;;;5.45;;
45103;SDS011;30865;51.288;4.572;2023-04-25T14:29:04;8.02;;;5.03;;
45103;SDS011;30865;51.288;4.572;2023-04-25T14:31:31;7.65;;;4.68;;
45103;SDS011;30865;51.288;4.572;2023-04-25T14:33:57;7.70;;;5.15;;
45103;SDS011;30865;51.288;4.572;2023-04-25T14:36:23;7.13;;;4.78;;
45103;SDS011;30865;51.288;4.572;2023-04-25T14:38:48;9.15;;;5.32;;
45103;SDS011;30865;51.288;4.572;2023-04-25T14:41:13;6.43;;;4.20;;
45103;SDS011;30865;51.288;4.572;2023-04-25T14:43:42;5.97;;;4.18;;
45103;SDS011;30865;51.288;4.572;2023-04-25T14:46:07;7.68;;;4.82;;
45103;SDS011;30865;51.288;4.572;2023-04-25T14:48:34;6.10;;;4.53;;
45103;SDS011;30865;51.288;4.572;2023-04-25T14:50:59;6.25;;;3.53;;
45103;SDS011;30865;51.288;4.572;2023-04-25T14:53:25;6.10;;;3.50;;
45103;SDS011;30865;51.288;4.572;2023-04-25T14:55:52;6.10;;;3.25;;
45103;SDS011;30865;51.288;4.572;2023-04-25T14:58:17;7.60;;;3.40;;